Time;durP1;ratioP1;P1;durP2;ratioP2;P2;SDS_P1;SDS_P2;PMS_P1;PMS_P2;Temp;Humidity;BMP_temperature;BMP_pressure;BME280_temperature;BME280_humidity;BME280_pressure;Samples;Min_cycle;Max_cycle;Signal;HPM_P1;HPM_P2
2020/12/27 00:02:18;;;;;;;60.93;32.93;;;;;;;;;;666273;206;952163;-73
2020/12/27 00:04:44;;;;;;;30.80;19.60;;;;;;;;;;667597;210;919051;-73
2020/12/27 00:07:10;;;;;;;92.77;43.40;;;;;;;;;;666798;208;922385;-73
2020/12/27 00:09:37;;;;;;;131.07;59.27;;;;;;;;;;665341;207;918866;-73
2020/12/27 00:12:02;;;;;;;120.27;56.90;;;;;;;;;;670079;208;918534;-73
2020/12/27 00:14:28;;;;;;;104.70;49.43;;;;;;;;;;670205;208;919533;-75
2020/12/27 00:16:54;;;;;;;70.87;38.53;;;;;;;;;;664698;208;925853;-73
2020/12/27 00:19:20;;;;;;;55.80;30.93;;;;;;;;;;669626;206;918381;-76
2020/12/27 00:21:46;;;;;;;71.27;36.40;;;;;;;;;;667787;206;918683;-74
2020/12/27 00:24:12;;;;;;;43.80;23.45;;;;;;;;;;663398;206;1654319;-74
2020/12/27 00:26:38;;;;;;;34.77;20.67;;;;;;;;;;671166;206;918506;-73
2020/12/27 00:29:03;;;;;;;36.63;20.60;;;;;;;;;;665940;206;919669;-73
2020/12/27 00:31:29;;;;;;;50.60;24.90;;;;;;;;;;668436;206;919208;-74
2020/12/27 00:33:55;;;;;;;110.37;50.97;;;;;;;;;;664127;207;918079;-73
2020/12/27 00:36:21;;;;;;;111.70;53.40;;;;;;;;;;672281;208;918640;-73
2020/12/27 00:38:47;;;;;;;98.35;46.58;;;;;;;;;;668321;206;918573;-73
2020/12/27 00:41:13;;;;;;;101.17;47.40;;;;;;;;;;666933;207;916597;-73
2020/12/27 00:43:38;;;;;;;101.07;43.07;;;;;;;;;;669359;207;918930;-74
2020/12/27 00:46:04;;;;;;;71.27;38.60;;;;;;;;;;667476;208;947328;-73
2020/12/27 00:48:30;;;;;;;108.37;47.27;;;;;;;;;;666329;206;918758;-73
2020/12/27 00:50:56;;;;;;;107.03;51.13;;;;;;;;;;672219;208;919254;-72
2020/12/27 00:53:24;;;;;;;95.87;48.03;;;;;;;;;;666335;208;919213;-72
2020/12/27 00:55:50;;;;;;;86.77;42.50;;;;;;;;;;667148;208;921890;-73
2020/12/27 00:58:16;;;;;;;97.50;48.85;;;;;;;;;;667164;208;917958;-74
2020/12/27 01:00:42;;;;;;;90.10;46.83;;;;;;;;;;669406;207;918594;-72
2020/12/27 01:03:08;;;;;;;98.70;45.50;;;;;;;;;;670185;206;918942;-73
2020/12/27 01:05:34;;;;;;;78.67;42.20;;;;;;;;;;666336;207;918529;-74
2020/12/27 01:08:00;;;;;;;94.82;47.47;;;;;;;;;;672024;206;915134;-74
2020/12/27 01:10:25;;;;;;;95.60;46.20;;;;;;;;;;667069;206;915835;-73
2020/12/27 01:12:51;;;;;;;72.47;39.45;;;;;;;;;;665310;206;918507;-74
2020/12/27 01:15:17;;;;;;;71.13;40.20;;;;;;;;;;668678;207;918558;-73
2020/12/27 01:17:43;;;;;;;76.12;39.05;;;;;;;;;;671365;206;920682;-73
2020/12/27 01:20:09;;;;;;;50.73;28.73;;;;;;;;;;667709;206;917504;-74
2020/12/27 01:22:35;;;;;;;63.83;32.17;;;;;;;;;;668473;208;919090;-75
2020/12/27 01:25:00;;;;;;;55.90;32.17;;;;;;;;;;663448;210;917196;-74
2020/12/27 01:27:26;;;;;;;69.60;33.30;;;;;;;;;;669085;207;917943;-74
2020/12/27 01:29:53;;;;;;;69.10;34.07;;;;;;;;;;663905;206;918269;-73
2020/12/27 01:32:19;;;;;;;51.47;29.80;;;;;;;;;;668212;210;918250;-74
2020/12/27 01:34:45;;;;;;;65.70;32.07;;;;;;;;;;664072;208;918625;-74
2020/12/27 01:37:10;;;;;;;67.93;33.63;;;;;;;;;;666712;208;930269;-75
2020/12/27 01:39:36;;;;;;;46.80;29.37;;;;;;;;;;670775;206;918413;-74
2020/12/27 01:42:02;;;;;;;61.60;30.00;;;;;;;;;;666193;206;919539;-74
2020/12/27 01:44:28;;;;;;;52.87;26.37;;;;;;;;;;668532;208;918968;-74
2020/12/27 01:46:54;;;;;;;40.83;22.90;;;;;;;;;;671019;206;800262;-74
2020/12/27 01:49:20;;;;;;;50.27;26.27;;;;;;;;;;669219;208;918221;-75
2020/12/27 01:51:46;;;;;;;27.53;16.53;;;;;;;;;;663553;206;918656;-73
2020/12/27 01:54:11;;;;;;;25.52;13.52;;;;;;;;;;667343;208;919000;-74
2020/12/27 01:56:37;;;;;;;22.40;14.67;;;;;;;;;;673234;207;618319;-73
2020/12/27 01:59:03;;;;;;;16.47;11.17;;;;;;;;;;668337;207;628860;-74
2020/12/27 02:01:29;;;;;;;17.70;11.70;;;;;;;;;;668726;207;626446;-75
2020/12/27 02:03:55;;;;;;;17.43;10.23;;;;;;;;;;672026;206;920128;-72
2020/12/27 02:06:21;;;;;;;16.45;11.02;;;;;;;;;;667061;206;925108;-73
2020/12/27 02:08:47;;;;;;;18.70;10.67;;;;;;;;;;668770;206;915382;-74
2020/12/27 02:11:13;;;;;;;19.27;11.17;;;;;;;;;;671420;208;918898;-75
2020/12/27 02:13:44;;;;;;;19.17;10.90;;;;;;;;;;665923;207;919288;-74
2020/12/27 02:16:10;;;;;;;17.27;9.23;;;;;;;;;;668336;205;918168;-74
2020/12/27 02:18:36;;;;;;;20.30;12.20;;;;;;;;;;664457;205;1238047;-74
2020/12/27 02:21:02;;;;;;;17.08;10.40;;;;;;;;;;676144;206;712627;-74
2020/12/27 02:23:28;;;;;;;20.40;12.20;;;;;;;;;;664513;206;918608;-74
2020/12/27 02:25:53;;;;;;;19.60;12.07;;;;;;;;;;667106;206;919888;-75
2020/12/27 02:28:19;;;;;;;17.00;10.40;;;;;;;;;;670008;206;918733;-74
2020/12/27 02:30:45;;;;;;;15.87;10.00;;;;;;;;;;667768;206;918603;-75
2020/12/27 02:33:11;;;;;;;16.47;10.67;;;;;;;;;;667440;206;921428;-74
2020/12/27 02:35:37;;;;;;;18.30;11.53;;;;;;;;;;671942;206;918837;-74
2020/12/27 02:38:03;;;;;;;15.53;10.07;;;;;;;;;;664522;206;1053656;-74
2020/12/27 02:40:28;;;;;;;17.57;10.73;;;;;;;;;;668314;208;918875;-73
2020/12/27 02:42:54;;;;;;;17.40;10.37;;;;;;;;;;664384;207;919128;-73
2020/12/27 02:45:20;;;;;;;17.75;10.73;;;;;;;;;;673272;208;919301;-74
2020/12/27 02:47:47;;;;;;;19.50;10.50;;;;;;;;;;666982;206;918070;-73
2020/12/27 02:50:13;;;;;;;16.17;10.20;;;;;;;;;;667578;206;919222;-74
2020/12/27 02:52:38;;;;;;;13.57;8.47;;;;;;;;;;671062;206;918882;-74
2020/12/27 02:55:04;;;;;;;23.73;10.17;;;;;;;;;;665236;208;919159;-73
2020/12/27 02:57:30;;;;;;;13.37;8.77;;;;;;;;;;668032;206;921451;-73
2020/12/27 02:59:56;;;;;;;14.53;8.60;;;;;;;;;;669317;206;918902;-74
2020/12/27 03:02:22;;;;;;;22.63;10.20;;;;;;;;;;668685;206;918384;-74
2020/12/27 03:04:48;;;;;;;15.13;9.43;;;;;;;;;;666373;207;919094;-74
2020/12/27 03:07:13;;;;;;;16.70;8.17;;;;;;;;;;667927;208;919244;-73
2020/12/27 03:09:39;;;;;;;14.23;8.60;;;;;;;;;;663331;207;918971;-74
2020/12/27 03:12:05;;;;;;;16.60;9.60;;;;;;;;;;665449;208;919154;-74
2020/12/27 03:14:31;;;;;;;12.87;8.47;;;;;;;;;;665984;207;918765;-74
2020/12/27 03:16:57;;;;;;;14.87;8.40;;;;;;;;;;671239;208;918356;-74
2020/12/27 03:19:23;;;;;;;16.30;8.70;;;;;;;;;;666043;206;918698;-74
2020/12/27 03:21:49;;;;;;;14.13;8.40;;;;;;;;;;667983;208;920939;-74
2020/12/27 03:24:15;;;;;;;13.57;8.80;;;;;;;;;;669862;206;918582;-73
2020/12/27 03:26:41;;;;;;;16.27;9.47;;;;;;;;;;672139;204;918136;-73
2020/12/27 03:29:07;;;;;;;11.07;7.00;;;;;;;;;;666614;206;1031176;-74
2020/12/27 03:31:33;;;;;;;12.50;8.13;;;;;;;;;;667240;207;918190;-72
2020/12/27 03:33:59;;;;;;;19.07;9.03;;;;;;;;;;669669;208;918767;-71
2020/12/27 03:36:25;;;;;;;19.40;8.80;;;;;;;;;;663674;208;951855;-73
2020/12/27 03:38:52;;;;;;;18.40;9.70;;;;;;;;;;668147;206;918573;-74
2020/12/27 03:41:16;;;;;;;12.57;7.67;;;;;;;;;;669600;204;918541;-73
2020/12/27 03:43:42;;;;;;;12.90;8.37;;;;;;;;;;665889;208;919287;-74
2020/12/27 03:46:08;;;;;;;16.70;8.50;;;;;;;;;;661430;206;1807611;-73
2020/12/27 03:48:34;;;;;;;11.60;7.43;;;;;;;;;;672890;206;917963;-74
2020/12/27 03:51:00;;;;;;;12.20;7.40;;;;;;;;;;665788;207;919114;-74
2020/12/27 03:53:26;;;;;;;14.77;8.90;;;;;;;;;;668895;208;917083;-73
2020/12/27 03:55:51;;;;;;;11.47;7.13;;;;;;;;;;670241;206;919269;-73
2020/12/27 03:58:17;;;;;;;11.40;8.20;;;;;;;;;;668640;208;919561;-73
2020/12/27 04:00:43;;;;;;;12.90;7.70;;;;;;;;;;665077;206;919273;-72
2020/12/27 04:03:09;;;;;;;15.87;8.03;;;;;;;;;;666807;206;1022136;-73
2020/12/27 04:05:35;;;;;;;10.17;7.20;;;;;;;;;;672802;206;880327;-72
2020/12/27 04:08:01;;;;;;;13.82;8.63;;;;;;;;;;666337;206;917641;-73
2020/12/27 04:10:27;;;;;;;14.87;9.20;;;;;;;;;;666991;206;913920;-72
2020/12/27 04:12:52;;;;;;;11.43;8.03;;;;;;;;;;671048;206;914339;-72
2020/12/27 04:15:18;;;;;;;13.17;7.83;;;;;;;;;;668183;207;915677;-72
2020/12/27 04:17:44;;;;;;;12.57;8.10;;;;;;;;;;666299;206;913140;-72
2020/12/27 04:20:10;;;;;;;11.37;6.93;;;;;;;;;;671881;206;917529;-73
2020/12/27 04:22:36;;;;;;;12.47;7.43;;;;;;;;;;666621;208;919018;-73
2020/12/27 04:25:02;;;;;;;10.68;6.82;;;;;;;;;;668149;208;919342;-72
2020/12/27 04:27:28;;;;;;;14.37;7.97;;;;;;;;;;666761;206;1257455;-71
2020/12/27 04:29:54;;;;;;;11.63;7.70;;;;;;;;;;668112;209;918064;-72
2020/12/27 04:32:20;;;;;;;12.97;8.00;;;;;;;;;;666224;208;918752;-73
2020/12/27 04:34:46;;;;;;;13.60;7.00;;;;;;;;;;667926;208;917556;-73
2020/12/27 04:37:11;;;;;;;16.20;7.30;;;;;;;;;;672122;206;915133;-72
2020/12/27 04:39:37;;;;;;;12.80;7.73;;;;;;;;;;669198;206;915864;-72
2020/12/27 04:42:03;;;;;;;9.77;7.67;;;;;;;;;;670183;208;915742;-72
2020/12/27 04:44:29;;;;;;;9.60;6.50;;;;;;;;;;669445;206;927810;-73
2020/12/27 04:46:55;;;;;;;11.27;7.30;;;;;;;;;;668643;208;919214;-73
2020/12/27 04:49:21;;;;;;;9.23;6.97;;;;;;;;;;667770;208;630883;-72
2020/12/27 04:51:47;;;;;;;8.83;6.10;;;;;;;;;;673579;206;630666;-70
2020/12/27 04:54:13;;;;;;;9.53;6.57;;;;;;;;;;661304;206;2210908;-72
2020/12/27 04:56:39;;;;;;;9.80;7.20;;;;;;;;;;669250;206;919319;-73
2020/12/27 04:59:05;;;;;;;12.90;6.87;;;;;;;;;;665718;207;917025;-72
2020/12/27 05:01:31;;;;;;;11.67;7.60;;;;;;;;;;672926;207;918542;-73
2020/12/27 05:03:57;;;;;;;11.07;6.97;;;;;;;;;;665379;208;935399;-72
2020/12/27 05:06:23;;;;;;;12.43;7.30;;;;;;;;;;667139;206;918875;-72
2020/12/27 05:08:48;;;;;;;10.17;7.73;;;;;;;;;;670232;206;917712;-72
2020/12/27 05:11:15;;;;;;;10.47;7.27;;;;;;;;;;668226;206;919353;-73
2020/12/27 05:13:43;;;;;;;13.80;7.77;;;;;;;;;;665652;206;918676;-72
2020/12/27 05:16:09;;;;;;;10.40;6.93;;;;;;;;;;671133;206;918483;-72
2020/12/27 05:18:36;;;;;;;10.60;7.00;;;;;;;;;;668380;206;918996;-73
2020/12/27 05:21:02;;;;;;;8.93;6.00;;;;;;;;;;665097;206;918900;-73
2020/12/27 05:23:28;;;;;;;10.83;6.20;;;;;;;;;;666043;206;1124348;-71
2020/12/27 05:25:54;;;;;;;10.90;7.07;;;;;;;;;;669740;206;1021065;-71
2020/12/27 05:28:20;;;;;;;14.07;7.13;;;;;;;;;;668142;206;918874;-73
2020/12/27 05:30:45;;;;;;;13.95;6.62;;;;;;;;;;666211;206;921451;-72
2020/12/27 05:33:12;;;;;;;14.83;6.80;;;;;;;;;;673498;206;919332;-73
2020/12/27 05:35:38;;;;;;;10.90;6.67;;;;;;;;;;663224;206;1317107;-70
2020/12/27 05:38:04;;;;;;;11.27;7.00;;;;;;;;;;666750;206;919099;-73
2020/12/27 05:40:29;;;;;;;11.52;7.78;;;;;;;;;;669224;208;919692;-72
2020/12/27 05:42:55;;;;;;;17.80;7.50;;;;;;;;;;670006;208;918790;-72
2020/12/27 05:45:21;;;;;;;17.10;9.33;;;;;;;;;;665836;208;918392;-72
2020/12/27 05:47:47;;;;;;;10.30;7.10;;;;;;;;;;665958;207;922239;-73
2020/12/27 05:50:13;;;;;;;11.93;7.83;;;;;;;;;;672598;205;923979;-72
2020/12/27 05:52:39;;;;;;;13.50;8.77;;;;;;;;;;669413;206;919163;-73
2020/12/27 05:55:04;;;;;;;14.87;8.00;;;;;;;;;;666668;206;915500;-72
2020/12/27 05:57:30;;;;;;;12.13;8.70;;;;;;;;;;671267;207;917245;-72
2020/12/27 05:59:56;;;;;;;12.50;8.67;;;;;;;;;;668853;206;915258;-72
2020/12/27 06:02:23;;;;;;;13.57;8.20;;;;;;;;;;667578;206;919004;-71
2020/12/27 06:04:55;;;;;;;18.73;7.70;;;;;;;;;;669717;206;917026;-73
2020/12/27 06:07:21;;;;;;;14.33;9.33;;;;;;;;;;666688;209;909722;-72
2020/12/27 06:09:52;;;;;;;11.23;8.03;;;;;;;;;;660711;210;918465;-72
2020/12/27 06:12:18;;;;;;;14.90;8.63;;;;;;;;;;666075;207;954455;-72
2020/12/27 06:14:43;;;;;;;21.03;9.70;;;;;;;;;;672454;208;918200;-72
2020/12/27 06:17:10;;;;;;;17.70;9.10;;;;;;;;;;665190;206;918706;-72
2020/12/27 06:19:36;;;;;;;15.17;9.13;;;;;;;;;;669873;206;918456;-73
2020/12/27 06:22:02;;;;;;;16.37;9.57;;;;;;;;;;664891;206;1179428;-73
2020/12/27 06:24:28;;;;;;;12.90;8.17;;;;;;;;;;669134;208;918914;-72
2020/12/27 06:26:54;;;;;;;14.60;9.80;;;;;;;;;;662235;206;1020643;-72
2020/12/27 06:29:19;;;;;;;15.37;8.30;;;;;;;;;;666820;207;918859;-73
2020/12/27 06:31:45;;;;;;;18.20;9.87;;;;;;;;;;669583;206;918602;-73
2020/12/27 06:34:11;;;;;;;13.67;8.73;;;;;;;;;;666113;207;1020782;-72
2020/12/27 06:36:37;;;;;;;11.83;7.60;;;;;;;;;;666628;206;923876;-71
2020/12/27 06:39:18;;;;;;;8.37;6.70;;;;;;;;;;670994;206;947294;-72
2020/12/27 06:41:44;;;;;;;9.43;6.20;;;;;;;;;;668393;209;918721;-72
2020/12/27 06:44:10;;;;;;;10.47;7.97;;;;;;;;;;660743;210;977443;-72
2020/12/27 06:46:36;;;;;;;11.47;7.00;;;;;;;;;;663526;207;917970;-72
2020/12/27 06:49:08;;;;;;;12.57;7.47;;;;;;;;;;669118;206;917858;-72
2020/12/27 06:51:34;;;;;;;11.17;7.57;;;;;;;;;;667424;209;919067;-72
2020/12/27 06:54:00;;;;;;;12.37;8.00;;;;;;;;;;666777;206;919007;-73
2020/12/27 06:56:26;;;;;;;13.23;8.73;;;;;;;;;;668000;206;921746;-72
2020/12/27 06:58:57;;;;;;;13.48;7.22;;;;;;;;;;669590;206;916159;-73
2020/12/27 07:01:23;;;;;;;12.03;8.00;;;;;;;;;;669399;207;918602;-71
2020/12/27 07:03:49;;;;;;;16.13;8.20;;;;;;;;;;661378;205;2657931;-73
2020/12/27 07:06:16;;;;;;;13.20;8.40;;;;;;;;;;666483;206;920819;-72
2020/12/27 07:08:42;;;;;;;14.13;8.57;;;;;;;;;;671632;206;916302;-73
2020/12/27 07:11:07;;;;;;;11.37;8.20;;;;;;;;;;667622;206;919294;-73
2020/12/27 07:13:39;;;;;;;12.60;9.20;;;;;;;;;;665914;206;919632;-73
2020/12/27 07:16:05;;;;;;;15.90;10.23;;;;;;;;;;672356;208;917445;-72
2020/12/27 07:18:31;;;;;;;11.97;6.97;;;;;;;;;;666228;208;918010;-69
2020/12/27 07:20:57;;;;;;;19.83;10.40;;;;;;;;;;668516;206;919452;-71
2020/12/27 07:23:23;;;;;;;18.63;11.03;;;;;;;;;;669165;206;933811;-73
2020/12/27 07:25:48;;;;;;;16.83;11.57;;;;;;;;;;662613;206;915013;-72
2020/12/27 07:28:15;;;;;;;17.60;11.95;;;;;;;;;;668536;206;914980;-72
2020/12/27 07:30:40;;;;;;;18.67;13.63;;;;;;;;;;663836;206;917045;-70
2020/12/27 07:33:06;;;;;;;22.33;12.70;;;;;;;;;;674492;208;625279;-73
2020/12/27 07:35:32;;;;;;;15.63;10.00;;;;;;;;;;665594;206;914230;-72
2020/12/27 07:37:58;;;;;;;11.17;7.33;;;;;;;;;;667649;206;915694;-72
2020/12/27 07:40:24;;;;;;;15.50;8.97;;;;;;;;;;670026;205;915960;-71
2020/12/27 07:42:50;;;;;;;19.67;10.50;;;;;;;;;;669974;208;911423;-72
2020/12/27 07:45:16;;;;;;;14.07;7.87;;;;;;;;;;668992;206;917880;-71
2020/12/27 07:47:42;;;;;;;11.32;7.12;;;;;;;;;;671441;206;919316;-71
2020/12/27 07:50:10;;;;;;;9.30;6.60;;;;;;;;;;661519;206;1705693;-72
2020/12/27 07:52:41;;;;;;;9.20;6.53;;;;;;;;;;666768;207;919204;-72
2020/12/27 07:55:07;;;;;;;8.20;5.83;;;;;;;;;;664937;206;923735;-71
2020/12/27 07:57:33;;;;;;;7.70;5.20;;;;;;;;;;671186;206;919125;-72
2020/12/27 08:00:04;;;;;;;7.07;5.20;;;;;;;;;;666086;206;919539;-72
2020/12/27 08:02:30;;;;;;;8.93;5.67;;;;;;;;;;668089;206;920266;-73
2020/12/27 08:04:55;;;;;;;8.10;5.70;;;;;;;;;;666941;207;919032;-72
2020/12/27 08:07:21;;;;;;;10.10;5.53;;;;;;;;;;669100;205;914892;-73
2020/12/27 08:09:47;;;;;;;11.50;5.47;;;;;;;;;;672452;206;624635;-73
2020/12/27 08:12:13;;;;;;;6.03;5.07;;;;;;;;;;667031;205;1342967;-73
2020/12/27 08:14:39;;;;;;;10.73;5.40;;;;;;;;;;675319;205;620964;-75
2020/12/27 08:17:05;;;;;;;11.00;4.07;;;;;;;;;;670605;205;640990;-74
2020/12/27 08:19:30;;;;;;;7.63;4.47;;;;;;;;;;672018;207;636015;-75
2020/12/27 08:21:56;;;;;;;7.00;5.50;;;;;;;;;;672173;208;617827;-78
2020/12/27 08:24:22;;;;;;;10.43;5.43;;;;;;;;;;671822;208;653517;-77
2020/12/27 08:26:48;;;;;;;8.27;5.77;;;;;;;;;;669952;208;649799;-75
2020/12/27 08:29:14;;;;;;;11.23;5.33;;;;;;;;;;671668;206;629153;-76
2020/12/27 08:31:40;;;;;;;7.00;5.70;;;;;;;;;;672850;206;635855;-72
2020/12/27 08:34:07;;;;;;;10.57;5.40;;;;;;;;;;672070;206;640185;-71
2020/12/27 08:36:33;;;;;;;8.60;5.60;;;;;;;;;;668901;206;632901;-70
2020/12/27 08:38:59;;;;;;;7.23;5.30;;;;;;;;;;674316;206;628151;-69
2020/12/27 08:41:30;;;;;;;10.38;5.40;;;;;;;;;;671644;206;623309;-67
2020/12/27 08:44:00;;;;;;;8.07;5.63;;;;;;;;;;670386;207;636798;-67
2020/12/27 08:46:26;;;;;;;7.47;5.63;;;;;;;;;;670516;206;627331;-66
2020/12/27 08:48:53;;;;;;;6.70;5.00;;;;;;;;;;672491;208;616508;-66
2020/12/27 08:51:19;;;;;;;8.90;5.50;;;;;;;;;;671007;206;627050;-66
2020/12/27 08:53:45;;;;;;;7.23;4.70;;;;;;;;;;669196;205;620712;-66
2020/12/27 08:56:11;;;;;;;8.20;4.90;;;;;;;;;;674717;207;632171;-66
2020/12/27 08:58:36;;;;;;;7.20;4.83;;;;;;;;;;667680;206;918447;-65
2020/12/27 09:01:02;;;;;;;6.40;5.20;;;;;;;;;;667493;206;919538;-66
2020/12/27 09:03:28;;;;;;;8.63;5.43;;;;;;;;;;665065;206;918737;-65
2020/12/27 09:05:54;;;;;;;17.20;6.30;;;;;;;;;;667363;209;921722;-66
2020/12/27 09:08:20;;;;;;;9.23;5.40;;;;;;;;;;667493;207;919212;-65
2020/12/27 09:10:47;;;;;;;6.57;4.90;;;;;;;;;;667173;208;916896;-64
2020/12/27 09:13:12;;;;;;;7.40;4.80;;;;;;;;;;670298;208;919519;-64
2020/12/27 09:15:38;;;;;;;11.03;4.80;;;;;;;;;;670165;206;918746;-64
2020/12/27 09:18:03;;;;;;;12.03;6.20;;;;;;;;;;669245;206;642043;-64
2020/12/27 09:20:29;;;;;;;9.17;5.60;;;;;;;;;;673341;206;608013;-65
2020/12/27 09:22:55;;;;;;;9.63;5.70;;;;;;;;;;670338;206;687810;-64
2020/12/27 09:25:21;;;;;;;9.85;6.03;;;;;;;;;;670991;205;631911;-64
2020/12/27 09:27:47;;;;;;;8.83;5.70;;;;;;;;;;675146;208;636787;-64
2020/12/27 09:30:15;;;;;;;8.40;5.07;;;;;;;;;;671054;208;620229;-64
2020/12/27 09:32:41;;;;;;;10.17;5.77;;;;;;;;;;672609;206;631601;-65
2020/12/27 09:35:07;;;;;;;9.80;5.53;;;;;;;;;;669808;206;623953;-65
2020/12/27 09:37:34;;;;;;;10.83;5.23;;;;;;;;;;675587;208;633392;-65
2020/12/27 09:40:00;;;;;;;7.90;5.20;;;;;;;;;;667353;206;1414875;-65
2020/12/27 09:42:26;;;;;;;8.60;6.30;;;;;;;;;;671389;208;628635;-66
2020/12/27 09:44:52;;;;;;;10.33;5.97;;;;;;;;;;671085;206;631233;-66
2020/12/27 09:47:21;;;;;;;10.27;5.90;;;;;;;;;;671255;206;637213;-66
2020/12/27 09:49:47;;;;;;;7.53;5.50;;;;;;;;;;669564;206;616787;-66
2020/12/27 09:52:12;;;;;;;7.73;4.90;;;;;;;;;;670837;206;637163;-66
2020/12/27 09:54:38;;;;;;;9.80;5.37;;;;;;;;;;672482;206;618312;-64
2020/12/27 09:57:10;;;;;;;13.37;5.73;;;;;;;;;;672049;206;626551;-65
2020/12/27 09:59:36;;;;;;;11.60;5.40;;;;;;;;;;668851;207;621130;-65
2020/12/27 10:02:02;;;;;;;10.40;6.90;;;;;;;;;;673114;206;632275;-65
2020/12/27 10:04:28;;;;;;;15.63;6.53;;;;;;;;;;671949;206;627378;-65
2020/12/27 10:06:54;;;;;;;9.00;5.80;;;;;;;;;;668824;206;644933;-66
2020/12/27 10:09:20;;;;;;;9.67;5.23;;;;;;;;;;667776;207;644046;-66
2020/12/27 10:11:45;;;;;;;11.50;5.80;;;;;;;;;;671924;206;619779;-66
2020/12/27 10:14:11;;;;;;;9.43;5.40;;;;;;;;;;668906;207;630437;-65
2020/12/27 10:16:37;;;;;;;11.23;6.70;;;;;;;;;;667202;206;641361;-66
2020/12/27 10:19:03;;;;;;;10.03;6.37;;;;;;;;;;673821;208;618440;-66
2020/12/27 10:21:29;;;;;;;8.60;6.23;;;;;;;;;;668732;206;622015;-66
2020/12/27 10:23:55;;;;;;;8.40;5.67;;;;;;;;;;671234;206;625985;-66
2020/12/27 10:26:20;;;;;;;8.97;5.17;;;;;;;;;;672381;206;626211;-65
2020/12/27 10:28:46;;;;;;;10.53;7.03;;;;;;;;;;672284;208;622248;-69
2020/12/27 10:31:12;;;;;;;8.27;5.87;;;;;;;;;;666521;206;911753;-66
2020/12/27 10:33:38;;;;;;;10.20;4.60;;;;;;;;;;669530;208;918920;-66
2020/12/27 10:36:04;;;;;;;7.83;4.73;;;;;;;;;;667580;207;918470;-66
2020/12/27 10:38:30;;;;;;;8.00;5.93;;;;;;;;;;668229;206;919521;-67
2020/12/27 10:40:55;;;;;;;9.53;6.37;;;;;;;;;;668247;208;918859;-66
2020/12/27 10:43:21;;;;;;;11.10;7.27;;;;;;;;;;672894;208;730340;-65
2020/12/27 10:45:47;;;;;;;10.20;6.20;;;;;;;;;;668341;207;914865;-66
2020/12/27 10:48:13;;;;;;;11.93;5.90;;;;;;;;;;667246;206;944933;-67
2020/12/27 10:50:39;;;;;;;10.93;6.23;;;;;;;;;;672335;206;915199;-66
2020/12/27 10:53:05;;;;;;;8.97;6.00;;;;;;;;;;667079;206;921073;-66
2020/12/27 10:55:30;;;;;;;10.83;5.80;;;;;;;;;;669868;206;918994;-66
2020/12/27 10:57:56;;;;;;;12.30;5.80;;;;;;;;;;672752;206;616350;-66
2020/12/27 11:00:22;;;;;;;9.93;5.63;;;;;;;;;;668140;206;919438;-66
2020/12/27 11:02:48;;;;;;;7.37;4.72;;;;;;;;;;665625;207;920491;-67
2020/12/27 11:05:15;;;;;;;8.65;5.53;;;;;;;;;;669480;207;920131;-66
2020/12/27 11:07:40;;;;;;;6.73;5.30;;;;;;;;;;663314;209;1504048;-66
2020/12/27 11:10:06;;;;;;;10.10;5.43;;;;;;;;;;668580;206;915942;-67
2020/12/27 11:12:32;;;;;;;7.23;5.13;;;;;;;;;;664032;207;918611;-67
2020/12/27 11:14:58;;;;;;;8.83;5.60;;;;;;;;;;669588;208;1731981;-67
2020/12/27 11:17:24;;;;;;;8.40;5.22;;;;;;;;;;667167;208;918871;-66
2020/12/27 11:19:50;;;;;;;11.77;5.73;;;;;;;;;;666240;206;915857;-67
2020/12/27 11:22:15;;;;;;;9.03;4.20;;;;;;;;;;671014;206;1121165;-66
2020/12/27 11:24:41;;;;;;;8.03;5.10;;;;;;;;;;665946;208;919271;-66
2020/12/27 11:27:07;;;;;;;10.32;5.85;;;;;;;;;;666900;207;918974;-66
2020/12/27 11:29:33;;;;;;;9.30;5.00;;;;;;;;;;669268;208;936606;-65
2020/12/27 11:31:59;;;;;;;8.37;5.30;;;;;;;;;;668477;208;1040396;-65
2020/12/27 11:34:25;;;;;;;6.20;4.47;;;;;;;;;;669063;206;653122;-64
2020/12/27 11:36:51;;;;;;;11.33;5.57;;;;;;;;;;669616;208;625727;-64
2020/12/27 11:39:17;;;;;;;12.03;5.40;;;;;;;;;;672210;206;617219;-65
2020/12/27 11:41:43;;;;;;;9.27;4.50;;;;;;;;;;671915;206;637811;-63
2020/12/27 11:44:08;;;;;;;6.40;4.23;;;;;;;;;;668945;206;618658;-64
2020/12/27 11:46:34;;;;;;;6.60;4.27;;;;;;;;;;675307;207;630655;-64
2020/12/27 11:49:00;;;;;;;6.60;4.87;;;;;;;;;;669165;207;916232;-64
2020/12/27 11:51:26;;;;;;;7.40;4.13;;;;;;;;;;672055;206;636568;-63
2020/12/27 11:53:52;;;;;;;8.20;4.30;;;;;;;;;;674535;206;626472;-64
2020/12/27 11:56:19;;;;;;;7.93;4.97;;;;;;;;;;671186;206;628018;-64
2020/12/27 11:58:45;;;;;;;7.23;4.73;;;;;;;;;;671363;206;664449;-65
2020/12/27 12:01:11;;;;;;;8.83;4.87;;;;;;;;;;669539;208;648866;-63
2020/12/27 12:03:37;;;;;;;9.27;4.43;;;;;;;;;;667902;208;622356;-63
2020/12/27 12:06:03;;;;;;;9.30;4.60;;;;;;;;;;669387;206;620590;-64
2020/12/27 12:08:28;;;;;;;11.17;5.00;;;;;;;;;;669408;206;918641;-63
2020/12/27 12:10:54;;;;;;;9.87;5.07;;;;;;;;;;672433;208;643218;-64
2020/12/27 12:13:20;;;;;;;6.47;4.63;;;;;;;;;;672050;206;623800;-63
2020/12/27 12:15:46;;;;;;;8.83;5.43;;;;;;;;;;669494;206;630882;-63
2020/12/27 12:18:12;;;;;;;7.40;4.70;;;;;;;;;;674582;207;614569;-63
2020/12/27 12:20:43;;;;;;;7.60;5.13;;;;;;;;;;669864;206;623384;-64
2020/12/27 12:23:08;;;;;;;10.33;5.87;;;;;;;;;;672260;206;632590;-64
2020/12/27 12:25:34;;;;;;;12.77;5.60;;;;;;;;;;668780;207;628998;-65
2020/12/27 12:28:00;;;;;;;7.50;3.60;;;;;;;;;;674402;208;636456;-64
2020/12/27 12:30:26;;;;;;;6.83;4.53;;;;;;;;;;669095;206;659965;-62
2020/12/27 12:32:52;;;;;;;9.43;6.20;;;;;;;;;;670541;206;640229;-64
2020/12/27 12:35:18;;;;;;;8.27;5.77;;;;;;;;;;673834;207;630186;-62
2020/12/27 12:37:44;;;;;;;9.40;5.03;;;;;;;;;;670215;205;630112;-62
2020/12/27 12:40:09;;;;;;;7.60;5.30;;;;;;;;;;672183;206;631356;-62
2020/12/27 12:42:36;;;;;;;9.07;4.47;;;;;;;;;;671360;206;626222;-62
2020/12/27 12:45:02;;;;;;;6.33;4.00;;;;;;;;;;671495;206;632904;-62
2020/12/27 12:47:28;;;;;;;4.30;3.30;;;;;;;;;;669745;207;630700;-62
2020/12/27 12:49:54;;;;;;;5.93;4.27;;;;;;;;;;670836;206;637367;-64
2020/12/27 12:52:19;;;;;;;7.10;4.00;;;;;;;;;;671874;206;634017;-62
2020/12/27 12:54:45;;;;;;;7.00;4.70;;;;;;;;;;671119;206;632970;-64
2020/12/27 12:57:11;;;;;;;10.10;4.03;;;;;;;;;;668544;206;618772;-62
2020/12/27 12:59:37;;;;;;;7.80;3.43;;;;;;;;;;676825;205;628161;-63
2020/12/27 13:02:03;;;;;;;6.10;4.03;;;;;;;;;;670687;205;639724;-63
2020/12/27 13:04:29;;;;;;;5.80;3.90;;;;;;;;;;672420;207;627990;-63
2020/12/27 13:06:55;;;;;;;6.97;3.33;;;;;;;;;;670871;206;918121;-62
2020/12/27 13:09:20;;;;;;;5.23;3.90;;;;;;;;;;672174;206;630099;-63
2020/12/27 13:11:46;;;;;;;7.50;4.20;;;;;;;;;;672403;206;628864;-64
2020/12/27 13:14:12;;;;;;;6.50;4.00;;;;;;;;;;672307;208;621721;-63
2020/12/27 13:16:42;;;;;;;7.47;5.13;;;;;;;;;;670949;206;918610;-64
2020/12/27 13:19:08;;;;;;;8.00;4.33;;;;;;;;;;668908;206;628306;-64
2020/12/27 13:21:33;;;;;;;6.23;4.27;;;;;;;;;;671548;206;628942;-63
2020/12/27 13:23:59;;;;;;;6.00;4.03;;;;;;;;;;671273;206;945793;-65
2020/12/27 13:26:25;;;;;;;8.77;4.30;;;;;;;;;;669286;207;626491;-63
2020/12/27 13:28:51;;;;;;;9.17;4.87;;;;;;;;;;669399;207;622792;-65
2020/12/27 13:31:17;;;;;;;5.20;3.50;;;;;;;;;;675351;208;617424;-64
2020/12/27 13:33:43;;;;;;;5.90;4.23;;;;;;;;;;670479;206;614021;-64
2020/12/27 13:36:09;;;;;;;5.18;3.47;;;;;;;;;;671621;206;636768;-64
2020/12/27 13:38:34;;;;;;;7.37;3.70;;;;;;;;;;669268;207;618755;-64
2020/12/27 13:41:00;;;;;;;7.97;3.70;;;;;;;;;;669894;209;626135;-63
2020/12/27 13:43:26;;;;;;;7.80;4.30;;;;;;;;;;668223;206;730270;-64
2020/12/27 13:45:52;;;;;;;6.97;4.03;;;;;;;;;;671656;206;652781;-64
2020/12/27 13:48:18;;;;;;;6.83;3.70;;;;;;;;;;673534;206;625144;-64
2020/12/27 13:50:44;;;;;;;9.13;3.60;;;;;;;;;;669799;206;653830;-64
2020/12/27 13:53:10;;;;;;;5.60;4.00;;;;;;;;;;670707;206;628749;-62
2020/12/27 13:55:36;;;;;;;5.80;3.50;;;;;;;;;;672330;207;616336;-64
2020/12/27 13:58:02;;;;;;;7.03;3.33;;;;;;;;;;671034;206;627856;-63
2020/12/27 14:00:28;;;;;;;7.40;4.20;;;;;;;;;;668914;205;627694;-64
2020/12/27 14:02:53;;;;;;;7.43;4.97;;;;;;;;;;673829;208;622946;-64
2020/12/27 14:05:19;;;;;;;7.80;4.40;;;;;;;;;;668862;206;626626;-63
2020/12/27 14:07:45;;;;;;;4.90;3.80;;;;;;;;;;671830;206;638551;-64
2020/12/27 14:10:11;;;;;;;6.07;3.50;;;;;;;;;;669389;205;648715;-64
2020/12/27 14:12:37;;;;;;;7.37;4.43;;;;;;;;;;676008;208;620902;-65